Time;durP1;ratioP1;P1;durP2;ratioP2;P2;SDS_P1;SDS_P2;PMS_P1;PMS_P2;Temp;Humidity;BMP_temperature;BMP_pressure;BME280_temperature;BME280_humidity;BME280_pressure;Samples;Min_cycle;Max_cycle;Signal;HPM_P1;HPM_P2
2023/06/14 00:00:14;;;;;;;7.43;5.57;;;13.20;71.40;;;;;;5029198;28;20465;-68
2023/06/14 00:02:43;;;;;;;10.73;6.10;;;13.20;74.90;;;;;;5027997;28;20952;-69
2023/06/14 00:05:13;;;;;;;11.77;6.20;;;13.20;72.00;;;;;;5029212;28;20939;-68
2023/06/14 00:07:43;;;;;;;10.80;7.00;;;13.20;72.30;;;;;;5029440;28;20863;-69
2023/06/14 00:10:12;;;;;;;8.00;6.33;;;13.10;71.50;;;;;;5029536;28;20509;-69
2023/06/14 00:12:40;;;;;;;8.80;6.90;;;13.20;70.80;;;;;;5028198;28;21121;-68
2023/06/14 00:15:10;;;;;;;8.03;7.20;;;13.20;78.80;;;;;;5032740;28;20558;-69
2023/06/14 00:17:39;;;;;;;7.23;6.30;;;13.10;74.50;;;;;;5033213;28;20539;-69
2023/06/14 00:20:09;;;;;;;7.53;6.13;;;13.00;74.30;;;;;;5033122;28;20882;-67
2023/06/14 00:22:38;;;;;;;9.00;6.30;;;12.90;73.80;;;;;;5031660;28;20912;-68
2023/06/14 00:25:07;;;;;;;6.87;6.27;;;12.80;78.10;;;;;;5033164;28;20522;-69
2023/06/14 00:27:55;;;;;;;8.80;6.93;;;12.90;82.10;;;;;;5032648;28;21217;-69
2023/06/14 00:30:23;;;;;;;9.50;6.97;;;12.90;78.50;;;;;;5032567;28;20464;-69
2023/06/14 00:32:53;;;;;;;6.70;5.87;;;13.00;77.40;;;;;;5031488;28;20536;-69
2023/06/14 00:35:21;;;;;;;7.90;7.10;;;12.90;77.00;;;;;;5032602;28;20454;-69
2023/06/14 00:37:49;;;;;;;7.20;5.80;;;12.90;75.50;;;;;;5032708;28;20446;-69
2023/06/14 00:40:17;;;;;;;7.30;5.73;;;13.00;75.70;;;;;;5032324;28;20557;-69
2023/06/14 00:42:45;;;;;;;6.10;5.50;;;12.90;74.90;;;;;;5031484;28;20455;-69
2023/06/14 00:45:13;;;;;;;7.07;6.47;;;12.80;78.90;;;;;;5032416;28;20574;-69
2023/06/14 00:47:43;;;;;;;7.00;6.37;;;12.80;80.50;;;;;;5032363;28;21216;-68
2023/06/14 00:50:13;;;;;;;6.93;6.00;;;12.70;78.10;;;;;;5032436;28;21011;-68
2023/06/14 00:52:41;;;;;;;7.97;6.00;;;12.70;75.80;;;;;;5030754;28;20556;-69
2023/06/14 00:55:09;;;;;;;7.20;6.50;;;12.60;76.20;;;;;;5032411;28;20470;-69
2023/06/14 00:57:39;;;;;;;8.90;6.70;;;12.40;78.40;;;;;;5030539;28;20442;-70
2023/06/14 01:00:09;;;;;;;6.67;6.07;;;12.30;79.40;;;;;;5032336;28;20493;-69
2023/06/14 01:02:38;;;;;;;8.20;6.50;;;12.30;82.10;;;;;;5030884;28;20493;-69
2023/06/14 01:05:09;;;;;;;8.37;7.03;;;12.10;79.40;;;;;;5032127;28;20861;-70
2023/06/14 01:07:48;;;;;;;6.87;6.13;;;12.10;80.50;;;;;;5032074;28;20437;-69
2023/06/14 01:10:41;;;;;;;8.10;6.90;;;12.20;81.00;;;;;;5032010;28;20459;-68
2023/06/14 01:13:16;;;;;;;7.70;6.90;;;12.20;81.50;;;;;;5031556;28;20508;-69
2023/06/14 01:15:45;;;;;;;6.77;6.17;;;12.20;84.80;;;;;;5031825;28;20846;-69
2023/06/14 01:18:17;;;;;;;7.33;6.63;;;12.30;83.40;;;;;;5031950;28;20446;-68
2023/06/14 01:20:49;;;;;;;8.70;7.90;;;12.30;88.80;;;;;;5031604;28;20519;-68
2023/06/14 01:23:19;;;;;;;10.87;9.13;;;12.20;85.10;;;;;;5030654;28;20930;-68
2023/06/14 01:25:52;;;;;;;9.03;8.10;;;12.10;87.00;;;;;;5030698;28;21048;-68
2023/06/14 01:28:21;;;;;;;8.10;7.13;;;11.90;83.50;;;;;;5031757;28;20864;-68
2023/06/14 01:30:53;;;;;;;8.07;7.27;;;11.90;87.50;;;;;;5031715;28;20464;-71
2023/06/14 01:33:25;;;;;;;11.90;8.40;;;11.90;89.40;;;;;;5030266;28;21090;-68
2023/06/14 01:35:54;;;;;;;7.27;6.60;;;11.80;90.20;;;;;;5031773;28;20860;-69
2023/06/14 01:38:25;;;;;;;9.10;7.50;;;11.70;84.70;;;;;;5031733;28;20438;-68
2023/06/14 01:40:56;;;;;;;8.13;7.40;;;11.70;90.30;;;;;;5031936;28;20479;-68
2023/06/14 01:43:25;;;;;;;7.43;6.73;;;11.60;90.40;;;;;;5030584;28;20501;-69
2023/06/14 01:45:55;;;;;;;7.37;6.57;;;11.70;85.20;;;;;;5031344;28;20546;-69
2023/06/14 01:48:24;;;;;;;7.53;6.23;;;11.60;90.40;;;;;;5031506;28;20459;-69
2023/06/14 01:50:53;;;;;;;9.90;6.53;;;11.60;90.50;;;;;;5031341;28;20461;-69
2023/06/14 01:53:22;;;;;;;9.30;6.90;;;11.70;90.60;;;;;;5030127;28;20494;-69
2023/06/14 01:55:53;;;;;;;7.77;6.90;;;11.60;90.90;;;;;;5031107;28;20454;-72
2023/06/14 01:58:21;;;;;;;11.43;6.70;;;11.60;88.50;;;;;;5031498;28;20565;-69
2023/06/14 02:00:51;;;;;;;8.30;6.70;;;11.60;87.60;;;;;;5030906;28;20464;-68
2023/06/14 02:03:19;;;;;;;8.50;7.67;;;11.60;88.10;;;;;;5029199;28;20436;-69
2023/06/14 02:05:47;;;;;;;13.40;7.27;;;11.50;92.10;;;;;;5031221;28;20504;-68
2023/06/14 02:08:15;;;;;;;7.10;6.50;;;11.50;93.10;;;;;;5030927;28;20448;-69
2023/06/14 02:10:45;;;;;;;7.70;6.90;;;11.50;93.20;;;;;;5031047;28;20467;-68
2023/06/14 02:13:13;;;;;;;7.00;6.30;;;11.40;93.10;;;;;;5029410;28;20552;-68
2023/06/14 02:15:43;;;;;;;8.47;7.30;;;11.40;91.80;;;;;;5030879;28;20451;-67
2023/06/14 02:18:11;;;;;;;9.43;8.40;;;11.40;90.90;;;;;;5030869;28;20460;-67
2023/06/14 02:20:39;;;;;;;8.23;7.00;;;11.40;90.20;;;;;;5030617;28;20566;-69
2023/06/14 02:23:07;;;;;;;7.87;7.17;;;11.40;91.50;;;;;;5029389;28;20523;-69
2023/06/14 02:25:36;;;;;;;8.13;7.43;;;11.40;93.60;;;;;;5030352;28;20991;-69
2023/06/14 02:28:05;;;;;;;8.20;7.37;;;11.50;94.90;;;;;;5030818;28;20471;-68
2023/06/14 02:30:33;;;;;;;8.23;7.50;;;11.40;94.50;;;;;;5030630;28;20567;-69
2023/06/14 02:33:01;;;;;;;7.43;6.60;;;11.40;92.70;;;;;;5029074;28;20476;-68
2023/06/14 02:35:30;;;;;;;7.13;6.53;;;11.50;91.80;;;;;;5030484;28;20537;-68
2023/06/14 02:37:58;;;;;;;8.67;7.87;;;11.50;91.90;;;;;;5030159;28;20452;-69
2023/06/14 02:40:26;;;;;;;8.03;7.23;;;11.50;92.90;;;;;;5030524;28;21065;-69
2023/06/14 02:42:54;;;;;;;7.47;6.80;;;11.40;91.40;;;;;;5029069;28;20502;-68
2023/06/14 02:45:24;;;;;;;7.20;6.60;;;11.30;91.30;;;;;;5030513;28;20442;-72
2023/06/14 02:47:52;;;;;;;8.07;7.40;;;11.20;91.30;;;;;;5030365;28;20494;-72
2023/06/14 02:50:23;;;;;;;7.67;6.87;;;11.20;91.60;;;;;;5029958;28;20895;-69
2023/06/14 02:52:52;;;;;;;8.70;7.77;;;11.10;91.60;;;;;;5028879;28;20474;-69
2023/06/14 02:55:20;;;;;;;10.43;7.20;;;11.00;93.30;;;;;;5029807;28;20453;-68
2023/06/14 02:57:49;;;;;;;8.30;6.83;;;11.00;96.00;;;;;;5030285;28;20470;-68
2023/06/14 03:00:19;;;;;;;8.97;8.17;;;11.00;93.20;;;;;;5029954;28;20552;-68
2023/06/14 03:02:48;;;;;;;9.00;7.90;;;11.00;95.40;;;;;;5028971;28;20483;-68
2023/06/14 03:05:16;;;;;;;9.07;8.20;;;10.90;96.00;;;;;;5030000;28;20440;-69
2023/06/14 03:07:44;;;;;;;8.50;7.70;;;10.90;96.40;;;;;;5029883;28;20436;-68
2023/06/14 03:10:13;;;;;;;11.70;8.40;;;10.70;96.60;;;;;;5029965;28;20973;-68
2023/06/14 03:12:41;;;;;;;13.60;9.20;;;10.70;95.00;;;;;;5028542;28;20472;-68
2023/06/14 03:15:12;;;;;;;10.03;9.03;;;10.60;94.80;;;;;;5029815;28;20990;-68
2023/06/14 03:17:45;;;;;;;9.60;7.93;;;10.70;97.20;;;;;;5029777;28;20448;-69
2023/06/14 03:20:15;;;;;;;8.43;7.63;;;10.60;96.30;;;;;;5030069;28;20479;-68
2023/06/14 03:22:45;;;;;;;11.03;8.37;;;10.60;98.30;;;;;;5029066;28;20507;-69
2023/06/14 03:25:15;;;;;;;8.73;7.63;;;10.50;98.50;;;;;;5029847;28;20453;-69
2023/06/14 03:27:43;;;;;;;9.20;8.37;;;10.50;98.80;;;;;;5030203;28;20452;-69
2023/06/14 03:30:11;;;;;;;13.77;8.20;;;10.50;99.40;;;;;;5029969;28;20522;-68
2023/06/14 03:32:39;;;;;;;8.47;7.67;;;10.50;96.50;;;;;;5029446;28;20470;-68
2023/06/14 03:35:08;;;;;;;10.70;9.70;;;10.60;98.50;;;;;;5030481;28;20441;-69
2023/06/14 03:37:38;;;;;;;9.63;8.63;;;10.60;99.50;;;;;;5030248;28;20441;-68
2023/06/14 03:40:07;;;;;;;9.80;8.80;;;10.60;97.80;;;;;;5029968;28;20482;-69
2023/06/14 03:42:34;;;;;;;9.87;8.90;;;10.60;98.40;;;;;;5029258;28;20448;-68
2023/06/14 03:45:03;;;;;;;8.40;7.60;;;10.50;97.60;;;;;;5030291;28;20452;-68
2023/06/14 03:47:31;;;;;;;9.77;8.70;;;10.50;98.80;;;;;;5030111;28;20507;-69
2023/06/14 03:50:00;;;;;;;12.83;8.20;;;10.50;98.90;;;;;;5033982;28;20942;-67
2023/06/14 03:52:28;;;;;;;9.27;7.80;;;10.50;99.10;;;;;;5033274;28;20443;-70
2023/06/14 03:54:59;;;;;;;10.13;8.73;;;10.60;99.20;;;;;;5032876;28;21015;-69
2023/06/14 03:57:30;;;;;;;10.33;7.97;;;10.60;99.10;;;;;;5033463;28;21473;-69
2023/06/14 03:59:58;;;;;;;8.80;7.90;;;10.70;98.70;;;;;;5033396;28;20544;-69
2023/06/14 04:02:28;;;;;;;10.00;8.60;;;10.70;98.70;;;;;;5032504;28;20797;-69
2023/06/14 04:04:56;;;;;;;8.83;7.63;;;10.60;99.30;;;;;;5032944;28;20959;-69
2023/06/14 04:07:24;;;;;;;8.90;8.00;;;10.70;97.10;;;;;;5033374;28;20964;-67
2023/06/14 04:09:52;;;;;;;8.60;7.80;;;10.70;99.50;;;;;;5032915;28;20874;-69
2023/06/14 04:12:22;;;;;;;10.50;7.93;;;10.70;99.20;;;;;;5032759;28;20448;-68
2023/06/14 04:15:01;;;;;;;8.17;7.30;;;10.80;98.10;;;;;;5033268;28;20502;-70
2023/06/14 04:17:47;;;;;;;9.20;8.30;;;10.90;98.60;;;;;;5033216;28;20443;-69
2023/06/14 04:20:16;;;;;;;8.77;7.97;;;11.00;99.50;;;;;;5033003;28;20899;-69
2023/06/14 04:22:45;;;;;;;8.70;7.90;;;11.10;98.90;;;;;;5031634;28;20971;-69
2023/06/14 04:25:13;;;;;;;7.67;6.90;;;11.10;97.00;;;;;;5032575;28;20498;-68
2023/06/14 04:27:43;;;;;;;8.17;7.47;;;11.20;97.20;;;;;;5033055;28;20442;-68
2023/06/14 04:30:13;;;;;;;8.27;7.47;;;11.30;98.10;;;;;;5032690;28;20561;-70
2023/06/14 04:32:42;;;;;;;10.80;8.17;;;11.40;98.70;;;;;;5030800;28;20442;-69
2023/06/14 04:35:10;;;;;;;9.60;8.60;;;11.60;98.00;;;;;;5032709;28;20537;-69
2023/06/14 04:37:43;;;;;;;9.37;8.23;;;11.80;97.70;;;;;;5032842;28;20864;-67
2023/06/14 04:40:12;;;;;;;8.30;7.40;;;11.90;97.40;;;;;;5032551;28;20466;-69
2023/06/14 04:42:40;;;;;;;9.50;8.50;;;12.00;96.20;;;;;;5031518;28;20504;-68
2023/06/14 04:45:10;;;;;;;9.20;8.37;;;12.10;95.20;;;;;;5032416;28;20460;-67
2023/06/14 04:47:40;;;;;;;10.20;8.10;;;12.20;96.40;;;;;;5032894;28;20455;-67
2023/06/14 04:50:10;;;;;;;8.67;7.90;;;12.30;96.70;;;;;;5032839;28;20487;-67
2023/06/14 04:52:38;;;;;;;11.20;8.20;;;12.30;97.10;;;;;;5032189;28;20497;-67
2023/06/14 04:55:06;;;;;;;8.50;7.70;;;12.30;96.30;;;;;;5032505;28;20484;-67
2023/06/14 04:57:35;;;;;;;9.53;8.37;;;12.50;96.30;;;;;;5033060;28;20454;-68
2023/06/14 05:00:05;;;;;;;8.80;7.90;;;12.60;97.00;;;;;;5033382;28;20466;-68
2023/06/14 05:02:35;;;;;;;9.50;7.90;;;12.60;94.90;;;;;;5032098;28;20442;-68
2023/06/14 05:05:06;;;;;;;9.23;8.10;;;12.70;92.50;;;;;;5032325;28;20448;-68
2023/06/14 05:07:34;;;;;;;9.23;8.33;;;12.70;94.20;;;;;;5032522;28;20449;-68
2023/06/14 05:10:03;;;;;;;9.50;8.50;;;12.80;96.70;;;;;;5032380;28;20519;-68
2023/06/14 05:12:31;;;;;;;8.93;8.13;;;12.90;95.70;;;;;;5031254;28;20452;-68
2023/06/14 05:14:59;;;;;;;9.63;8.63;;;13.10;94.90;;;;;;5031868;28;20481;-68
2023/06/14 05:17:28;;;;;;;9.23;8.30;;;13.10;92.40;;;;;;5032208;28;20445;-68
2023/06/14 05:19:57;;;;;;;10.20;9.30;;;13.20;91.20;;;;;;5031817;28;20513;-68
2023/06/14 05:22:25;;;;;;;9.00;8.10;;;13.20;94.50;;;;;;5030583;28;20449;-68
2023/06/14 05:24:53;;;;;;;10.67;8.83;;;13.40;93.50;;;;;;5031688;28;20445;-69
2023/06/14 05:27:21;;;;;;;9.17;7.67;;;13.50;92.60;;;;;;5031797;28;20534;-68
2023/06/14 05:29:50;;;;;;;10.47;9.47;;;13.60;92.60;;;;;;5031468;28;20445;-68
2023/06/14 05:32:18;;;;;;;9.37;8.47;;;13.80;90.00;;;;;;5031498;28;20445;-68
2023/06/14 05:34:46;;;;;;;13.40;9.23;;;13.80;89.50;;;;;;5031014;28;20527;-68
2023/06/14 05:37:15;;;;;;;11.97;8.97;;;14.00;88.20;;;;;;5031617;28;20531;-68
2023/06/14 05:39:43;;;;;;;11.00;9.90;;;14.10;90.00;;;;;;5031464;28;20493;-68
2023/06/14 05:42:12;;;;;;;9.80;8.97;;;14.10;91.90;;;;;;5031471;28;20453;-69
2023/06/14 05:44:40;;;;;;;11.03;9.93;;;14.40;90.10;;;;;;5030673;28;20437;-69
2023/06/14 05:47:08;;;;;;;10.13;8.67;;;14.50;88.00;;;;;;5032356;28;20448;-67
2023/06/14 05:49:36;;;;;;;10.80;9.00;;;14.70;86.20;;;;;;5051095;28;20454;-67
2023/06/14 05:52:05;;;;;;;9.37;8.40;;;14.70;86.00;;;;;;5051291;28;20448;-67
2023/06/14 05:54:34;;;;;;;9.53;8.63;;;14.80;86.80;;;;;;5050409;28;20484;-67
2023/06/14 05:57:03;;;;;;;10.03;9.13;;;14.90;90.30;;;;;;5051283;28;20824;-67
2023/06/14 05:59:31;;;;;;;9.63;8.60;;;14.90;90.00;;;;;;5051327;28;20475;-67
2023/06/14 06:01:59;;;;;;;9.37;8.43;;;15.00;90.50;;;;;;5051128;28;20469;-67
2023/06/14 06:04:27;;;;;;;9.97;8.87;;;15.10;90.20;;;;;;5050004;28;20449;-68
2023/06/14 06:06:55;;;;;;;10.43;9.47;;;15.20;88.20;;;;;;5050816;28;20870;-68
2023/06/14 06:09:23;;;;;;;12.10;9.17;;;15.30;85.40;;;;;;5051086;28;20441;-68
2023/06/14 06:11:52;;;;;;;12.30;9.03;;;15.50;83.80;;;;;;5050153;28;20474;-67
2023/06/14 06:14:21;;;;;;;11.23;8.20;;;15.60;82.00;;;;;;5049525;28;20543;-68
2023/06/14 06:16:49;;;;;;;9.13;7.50;;;15.80;81.10;;;;;;5050413;28;21003;-67
2023/06/14 06:19:17;;;;;;;12.10;8.40;;;15.90;81.80;;;;;;5050938;28;20479;-67
2023/06/14 06:21:47;;;;;;;11.17;7.80;;;16.10;82.30;;;;;;5050572;28;21084;-67
2023/06/14 06:24:15;;;;;;;10.93;8.57;;;16.20;81.70;;;;;;5049635;28;20871;-67
2023/06/14 06:26:43;;;;;;;8.13;7.47;;;16.30;80.60;;;;;;5050736;28;20908;-67
2023/06/14 06:29:13;;;;;;;9.00;7.20;;;16.50;77.00;;;;;;5050372;28;20454;-69
2023/06/14 06:31:41;;;;;;;7.70;7.00;;;16.50;76.70;;;;;;5050166;28;20462;-68
2023/06/14 06:34:09;;;;;;;7.63;6.93;;;16.60;74.80;;;;;;5049276;28;20463;-69
2023/06/14 06:36:37;;;;;;;11.33;7.50;;;16.60;77.00;;;;;;5050401;28;20478;-68
2023/06/14 06:39:10;;;;;;;8.70;7.90;;;16.80;73.90;;;;;;5043310;28;21120;-69
2023/06/14 06:41:39;;;;;;;7.40;6.70;;;16.80;73.10;;;;;;5037247;28;20511;-67
2023/06/14 06:44:09;;;;;;;7.70;7.00;;;16.90;73.00;;;;;;5054959;28;20440;-69
2023/06/14 06:46:40;;;;;;;6.93;6.23;;;17.20;70.00;;;;;;5033933;28;20804;-69
2023/06/14 06:49:09;;;;;;;7.10;6.30;;;17.40;67.20;;;;;;5044892;28;20452;-67
2023/06/14 06:51:37;;;;;;;8.07;7.37;;;17.60;66.40;;;;;;5038893;28;20542;-66
2023/06/14 06:54:05;;;;;;;9.63;7.13;;;17.70;66.60;;;;;;5035818;28;20445;-67
2023/06/14 06:56:33;;;;;;;9.80;6.87;;;17.80;66.30;;;;;;5043385;28;20485;-67
2023/06/14 06:59:01;;;;;;;10.30;6.80;;;17.90;64.10;;;;;;5046833;28;20447;-66
2023/06/14 07:01:29;;;;;;;7.80;7.00;;;17.80;64.40;;;;;;5059843;28;20460;-66
2023/06/14 07:03:59;;;;;;;7.83;6.57;;;17.90;66.70;;;;;;5039291;28;20456;-67
2023/06/14 07:06:27;;;;;;;12.03;6.77;;;18.00;67.60;;;;;;5051397;28;20475;-67
2023/06/14 07:09:01;;;;;;;6.70;6.03;;;18.10;64.40;;;;;;5045262;28;20452;-70
2023/06/14 07:11:29;;;;;;;8.03;6.03;;;18.20;66.20;;;;;;5049987;28;20464;-67
2023/06/14 07:13:57;;;;;;;12.40;6.17;;;18.40;65.50;;;;;;5047066;28;20444;-67
2023/06/14 07:16:25;;;;;;;6.93;6.43;;;18.50;61.20;;;;;;5048041;28;20559;-67
2023/06/14 07:18:53;;;;;;;6.97;6.40;;;18.60;62.50;;;;;;5048312;28;20439;-68
2023/06/14 07:21:25;;;;;;;8.17;6.60;;;18.70;62.60;;;;;;5048446;28;20518;-67
2023/06/14 07:23:54;;;;;;;8.20;6.93;;;18.90;62.40;;;;;;5046486;28;20454;-67
2023/06/14 07:26:23;;;;;;;8.43;6.97;;;19.00;61.00;;;;;;5049866;28;20436;-68
2023/06/14 07:28:51;;;;;;;7.20;6.60;;;19.10;59.60;;;;;;5049919;28;20480;-67
2023/06/14 07:31:21;;;;;;;6.73;6.13;;;19.10;61.70;;;;;;5049773;28;20470;-66
2023/06/14 07:33:49;;;;;;;7.60;6.90;;;19.20;62.30;;;;;;5048459;28;21206;-66
2023/06/14 07:36:17;;;;;;;9.87;7.50;;;19.20;60.40;;;;;;5049519;28;20620;-66
2023/06/14 07:38:47;;;;;;;9.73;6.87;;;19.20;60.90;;;;;;5049893;28;20444;-68
2023/06/14 07:41:15;;;;;;;8.60;7.03;;;19.20;60.70;;;;;;5049874;28;20464;-67
2023/06/14 07:43:43;;;;;;;6.70;6.10;;;19.40;60.30;;;;;;5048612;28;20447;-67
2023/06/14 07:46:11;;;;;;;8.47;7.07;;;19.50;59.30;;;;;;5049730;28;20501;-67
2023/06/14 07:48:42;;;;;;;11.27;6.93;;;19.60;61.60;;;;;;5049538;28;20814;-67
2023/06/14 07:51:10;;;;;;;10.73;7.53;;;19.60;58.70;;;;;;5049328;28;20467;-68
2023/06/14 07:53:38;;;;;;;7.13;6.17;;;19.60;57.80;;;;;;5048368;28;20460;-67
2023/06/14 07:56:07;;;;;;;7.17;6.47;;;19.70;57.40;;;;;;5049345;28;20541;-67
2023/06/14 07:58:35;;;;;;;6.60;5.90;;;19.80;55.50;;;;;;5049434;28;20518;-67
2023/06/14 08:01:06;;;;;;;8.20;5.93;;;19.80;55.10;;;;;;5048993;28;20482;-67
2023/06/14 08:03:34;;;;;;;8.80;6.00;;;19.80;55.60;;;;;;5048435;28;20444;-67
2023/06/14 08:06:04;;;;;;;6.80;6.10;;;19.90;56.90;;;;;;5049158;28;20444;-67
2023/06/14 08:08:32;;;;;;;7.10;6.40;;;20.10;56.90;;;;;;5049378;28;20440;-67
2023/06/14 08:11:00;;;;;;;7.23;6.40;;;20.20;55.80;;;;;;5049129;28;20470;-68
2023/06/14 08:13:30;;;;;;;10.80;6.10;;;20.40;55.70;;;;;;5047940;28;20502;-68
2023/06/14 08:15:58;;;;;;;8.20;6.27;;;20.40;54.70;;;;;;5049075;28;20566;-67
2023/06/14 08:18:26;;;;;;;7.13;6.00;;;20.50;55.50;;;;;;5049407;28;20444;-67
2023/06/14 08:20:54;;;;;;;7.50;5.90;;;20.70;56.10;;;;;;5049363;28;20888;-66
2023/06/14 08:23:22;;;;;;;6.33;5.80;;;20.80;54.90;;;;;;5048077;28;20440;-67
2023/06/14 08:25:57;;;;;;;6.97;6.33;;;20.90;54.30;;;;;;5049105;28;20436;-68
2023/06/14 08:28:25;;;;;;;7.23;6.53;;;21.00;52.90;;;;;;5049367;28;20439;-68
2023/06/14 08:30:55;;;;;;;12.07;6.23;;;21.00;54.30;;;;;;5049239;28;20475;-68
2023/06/14 08:33:23;;;;;;;8.60;6.13;;;21.20;53.70;;;;;;5047883;28;20949;-67
2023/06/14 08:35:51;;;;;;;10.67;7.00;;;21.40;54.20;;;;;;5052174;28;20575;-67
2023/06/14 08:38:19;;;;;;;6.97;5.93;;;21.40;52.90;;;;;;5052646;28;20483;-67
2023/06/14 08:40:51;;;;;;;6.80;6.20;;;21.40;53.60;;;;;;5052741;28;20474;-68
2023/06/14 08:43:19;;;;;;;6.67;5.73;;;21.50;53.20;;;;;;5051374;28;20960;-68
2023/06/14 08:45:52;;;;;;;6.60;5.97;;;21.70;52.70;;;;;;5052721;28;20855;-68
2023/06/14 08:48:25;;;;;;;8.07;6.33;;;21.80;53.10;;;;;;5052444;28;20440;-68
2023/06/14 08:51:01;;;;;;;7.20;6.60;;;21.90;52.00;;;;;;5052688;28;20468;-67
2023/06/14 08:53:31;;;;;;;8.03;6.57;;;21.90;52.10;;;;;;5051146;28;20490;-67
2023/06/14 08:56:05;;;;;;;6.77;6.20;;;21.90;51.80;;;;;;5052171;28;20514;-68
2023/06/14 08:58:33;;;;;;;6.60;6.00;;;22.10;53.10;;;;;;5052420;28;20543;-67
2023/06/14 09:01:03;;;;;;;6.90;6.30;;;22.30;53.40;;;;;;5052385;28;20468;-68
2023/06/14 09:03:33;;;;;;;7.07;6.47;;;22.50;52.90;;;;;;5050922;28;20444;-68
2023/06/14 09:06:01;;;;;;;7.07;6.50;;;22.70;50.00;;;;;;5052572;28;20471;-67
2023/06/14 09:08:30;;;;;;;7.47;6.77;;;22.40;50.00;;;;;;5052543;28;20432;-68
2023/06/14 09:10:58;;;;;;;7.07;6.43;;;22.50;50.80;;;;;;5052117;28;21035;-67
2023/06/14 09:13:27;;;;;;;6.67;6.10;;;22.50;51.00;;;;;;5050941;28;20968;-67
2023/06/14 09:15:59;;;;;;;7.40;6.10;;;22.50;49.90;;;;;;5052051;28;20451;-67
2023/06/14 09:18:36;;;;;;;7.80;6.77;;;22.50;50.30;;;;;;5052160;28;20880;-68
2023/06/14 09:21:06;;;;;;;8.47;6.57;;;22.60;48.90;;;;;;5052003;28;21016;-67
2023/06/14 09:23:38;;;;;;;8.37;6.17;;;22.70;49.20;;;;;;5051439;28;20471;-67
2023/06/14 09:26:09;;;;;;;7.93;7.00;;;22.80;48.40;;;;;;5052746;28;20487;-68
2023/06/14 09:28:41;;;;;;;7.20;6.13;;;22.80;48.60;;;;;;5052055;28;20451;-68
2023/06/14 09:31:11;;;;;;;7.53;6.80;;;22.80;49.40;;;;;;5051901;28;20497;-67
2023/06/14 09:33:42;;;;;;;6.83;6.33;;;23.00;49.30;;;;;;5050768;28;20448;-68
2023/06/14 09:36:13;;;;;;;8.20;6.03;;;23.20;49.90;;;;;;5051696;28;20445;-67
2023/06/14 09:38:42;;;;;;;7.10;5.90;;;23.30;49.20;;;;;;5051649;28;20444;-68
2023/06/14 09:41:10;;;;;;;6.33;5.43;;;23.80;46.50;;;;;;5051347;28;20468;-66
2023/06/14 09:43:38;;;;;;;6.63;5.87;;;24.00;45.30;;;;;;5050588;28;20892;-66
2023/06/14 09:46:10;;;;;;;9.47;5.90;;;24.20;44.40;;;;;;5050863;28;20502;-67
2023/06/14 09:48:42;;;;;;;7.03;5.60;;;24.80;43.00;;;;;;5051450;28;21023;-65
2023/06/14 09:51:14;;;;;;;7.70;6.47;;;25.40;44.60;;;;;;5051595;28;20896;-67
2023/06/14 09:53:44;;;;;;;7.07;6.47;;;25.40;44.30;;;;;;5050131;28;20623;-66
2023/06/14 09:56:13;;;;;;;7.80;6.20;;;25.50;42.30;;;;;;5051469;28;20988;-67
2023/06/14 09:58:42;;;;;;;6.80;6.10;;;25.60;42.70;;;;;;5051416;28;21020;-66
2023/06/14 10:01:19;;;;;;;7.53;6.50;;;25.60;44.00;;;;;;5051752;28;20459;-67
2023/06/14 10:03:51;;;;;;;6.27;5.60;;;25.30;41.40;;;;;;5050259;28;20443;-67
2023/06/14 10:06:25;;;;;;;6.20;5.80;;;25.50;40.10;;;;;;5051718;28;20464;-66
2023/06/14 10:08:56;;;;;;;6.67;6.00;;;25.70;40.60;;;;;;5051305;28;20538;-67
2023/06/14 10:11:24;;;;;;;5.70;5.20;;;25.50;39.20;;;;;;5051266;28;20495;-66
2023/06/14 10:13:52;;;;;;;5.40;4.90;;;24.40;40.20;;;;;;5050002;28;20935;-67
2023/06/14 10:16:25;;;;;;;8.20;5.70;;;23.80;40.30;;;;;;5051145;28;20443;-66
2023/06/14 10:19:08;;;;;;;5.80;5.33;;;23.50;40.70;;;;;;5050999;28;20501;-67
2023/06/14 10:21:48;;;;;;;5.73;5.10;;;23.90;40.60;;;;;;5050909;28;20474;-66
2023/06/14 10:24:19;;;;;;;6.13;5.53;;;24.60;39.80;;;;;;5048420;28;20444;-67
2023/06/14 10:26:58;;;;;;;5.87;5.27;;;25.60;38.50;;;;;;5050981;28;20440;-68
2023/06/14 10:29:31;;;;;;;6.90;5.17;;;26.50;35.30;;;;;;5051201;28;20470;-68
2023/06/14 10:32:03;;;;;;;5.77;5.27;;;26.40;34.70;;;;;;5050561;28;20460;-68
2023/06/14 10:34:33;;;;;;;5.83;5.30;;;25.70;36.30;;;;;;5049984;28;20535;-67
2023/06/14 10:37:06;;;;;;;6.63;5.73;;;24.80;38.40;;;;;;5050784;28;20479;-67
2023/06/14 10:39:39;;;;;;;6.43;5.60;;;24.40;41.90;;;;;;5051620;28;20439;-67
2023/06/14 10:42:07;;;;;;;6.17;5.63;;;25.10;40.40;;;;;;5051387;28;20440;-67
2023/06/14 10:44:43;;;;;;;7.60;5.77;;;26.40;37.90;;;;;;5050792;28;20448;-68
2023/06/14 10:47:26;;;;;;;5.87;5.27;;;27.70;38.40;;;;;;5051274;28;20437;-67
2023/06/14 10:49:57;;;;;;;5.87;5.37;;;29.00;33.60;;;;;;5051411;28;20444;-67
2023/06/14 10:52:29;;;;;;;6.10;5.50;;;29.40;31.90;;;;;;5050435;28;20490;-66
2023/06/14 10:55:12;;;;;;;6.00;5.30;;;27.70;32.60;;;;;;5050661;28;20842;-67
2023/06/14 10:57:43;;;;;;;5.93;5.27;;;26.10;35.80;;;;;;5051182;28;21097;-67
2023/06/14 11:00:22;;;;;;;5.60;5.10;;;25.40;37.70;;;;;;5050684;28;20781;-67
2023/06/14 11:03:32;;;;;;;8.80;5.80;;;25.10;37.70;;;;;;5049133;28;20448;-67
2023/06/14 11:06:02;;;;;;;6.93;5.63;;;25.80;36.30;;;;;;5050689;28;20440;-68
2023/06/14 11:09:11;;;;;;;7.13;5.30;;;26.50;36.70;;;;;;5050266;28;20440;-66
2023/06/14 11:11:43;;;;;;;5.90;5.37;;;27.50;35.30;;;;;;5049977;28;21036;-67
2023/06/14 11:14:12;;;;;;;5.70;5.20;;;28.40;36.90;;;;;;5048737;28;20444;-68
2023/06/14 11:16:40;;;;;;;5.70;5.10;;;29.40;32.50;;;;;;5049681;28;20815;-67
2023/06/14 11:19:08;;;;;;;5.40;4.90;;;29.30;31.20;;;;;;5049749;28;20479;-67
2023/06/14 11:21:41;;;;;;;10.73;5.90;;;29.30;33.90;;;;;;5049935;28;20456;-67
2023/06/14 11:24:11;;;;;;;5.90;5.10;;;29.10;30.00;;;;;;5048655;28;20531;-67
2023/06/14 11:26:39;;;;;;;5.33;4.83;;;29.10;31.50;;;;;;5049948;28;20436;-67
2023/06/14 11:29:07;;;;;;;5.27;4.77;;;30.00;32.20;;;;;;5049744;28;20570;-67
2023/06/14 11:31:35;;;;;;;5.67;4.93;;;30.30;28.80;;;;;;5049523;28;20492;-67
2023/06/14 11:34:06;;;;;;;9.97;5.57;;;30.40;31.90;;;;;;5048531;28;20435;-65
2023/06/14 11:36:35;;;;;;;6.53;4.77;;;30.20;29.40;;;;;;5049882;28;20440;-67
2023/06/14 11:39:06;;;;;;;6.27;4.90;;;29.60;29.50;;;;;;5049407;28;20487;-68
2023/06/14 11:41:37;;;;;;;6.10;5.50;;;28.50;30.00;;;;;;5049473;28;20834;-66
2023/06/14 11:44:06;;;;;;;5.50;5.10;;;26.30;32.10;;;;;;5045076;28;20511;-67
2023/06/14 11:46:35;;;;;;;6.70;5.70;;;25.00;35.00;;;;;;5029367;28;20527;-66
2023/06/14 11:49:06;;;;;;;6.30;5.63;;;24.50;36.40;;;;;;5029713;28;20444;-67
2023/06/14 11:51:35;;;;;;;6.27;5.67;;;24.10;36.60;;;;;;5039558;28;20470;-69
2023/06/14 11:54:07;;;;;;;5.70;4.70;;;24.00;38.20;;;;;;5053714;28;20448;-69
2023/06/14 11:56:36;;;;;;;7.30;5.23;;;24.20;37.10;;;;;;5043076;28;20477;-66
2023/06/14 11:59:05;;;;;;;8.83;5.00;;;24.60;35.40;;;;;;5049371;28;20472;-68
2023/06/14 12:01:39;;;;;;;5.83;5.27;;;25.20;34.20;;;;;;5035773;28;20552;-67
2023/06/14 12:04:07;;;;;;;5.50;5.10;;;25.60;35.50;;;;;;5044674;28;20516;-66
2023/06/14 12:06:39;;;;;;;7.60;5.40;;;25.50;34.90;;;;;;5034864;28;21101;-67
2023/06/14 12:09:13;;;;;;;5.70;5.20;;;25.60;35.00;;;;;;5039792;28;20440;-67
2023/06/14 12:11:41;;;;;;;6.87;5.27;;;25.80;34.90;;;;;;5033940;28;20461;-66
2023/06/14 12:14:10;;;;;;;7.00;5.50;;;25.40;34.70;;;;;;5032546;28;20527;-66
2023/06/14 12:16:41;;;;;;;5.80;5.30;;;24.90;35.50;;;;;;5044799;28;20450;-67
2023/06/14 12:19:13;;;;;;;6.63;6.03;;;24.50;35.90;;;;;;5068141;28;20477;-66
2023/06/14 12:21:42;;;;;;;6.77;6.17;;;25.30;35.90;;;;;;5064864;28;20465;-66
2023/06/14 12:24:13;;;;;;;7.57;5.90;;;26.70;33.80;;;;;;5056444;28;20446;-66
2023/06/14 12:26:43;;;;;;;6.47;5.83;;;27.60;32.80;;;;;;5056262;28;20450;-66
2023/06/14 12:29:12;;;;;;;7.27;5.60;;;28.20;31.30;;;;;;5052707;28;20531;-66
2023/06/14 12:31:40;;;;;;;5.03;4.63;;;29.10;33.30;;;;;;5052825;28;20467;-65
2023/06/14 12:34:09;;;;;;;5.10;4.70;;;30.00;29.90;;;;;;5051481;28;20444;-66
2023/06/14 12:36:41;;;;;;;7.33;5.00;;;30.50;29.30;;;;;;5045158;28;20490;-65
2023/06/14 12:39:11;;;;;;;5.73;4.80;;;29.80;30.00;;;;;;5056522;28;20998;-66
2023/06/14 12:41:41;;;;;;;6.50;5.20;;;29.50;30.90;;;;;;5061257;28;20462;-65
2023/06/14 12:44:09;;;;;;;9.80;5.10;;;30.60;32.40;;;;;;5060927;28;20471;-66
2023/06/14 12:46:39;;;;;;;5.13;4.70;;;31.50;29.30;;;;;;5032826;28;20954;-65
2023/06/14 12:49:09;;;;;;;5.17;4.70;;;31.70;28.10;;;;;;5033607;28;20452;-66
2023/06/14 12:51:37;;;;;;;5.93;5.43;;;30.90;28.20;;;;;;5032866;28;20499;-65
2023/06/14 12:54:05;;;;;;;6.60;5.20;;;29.70;29.80;;;;;;5031508;28;20453;-66
2023/06/14 12:56:35;;;;;;;6.80;5.90;;;28.70;30.30;;;;;;5032358;28;20447;-66
2023/06/14 12:59:03;;;;;;;7.83;5.67;;;28.50;30.90;;;;;;5032345;28;20481;-67